createdAt,value
2018-08-24T00:00:05.189Z,0.90
2018-08-24T00:01:05.202Z,1.30
2018-08-24T00:02:05.199Z,1.40
2018-08-24T00:03:05.213Z,1.10
2018-08-24T00:04:05.211Z,1.10
2018-08-24T00:05:05.221Z,0.90
2018-08-24T00:06:05.223Z,1.20
2018-08-24T00:07:05.232Z,0.90
2018-08-24T00:08:05.242Z,1.70
2018-08-24T00:09:05.240Z,1.30
2018-08-24T00:10:05.245Z,1.50
2018-08-24T00:11:05.247Z,1.30
2018-08-24T00:12:05.251Z,2.00
2018-08-24T00:13:05.266Z,1.70
2018-08-24T00:14:06.848Z,1.30
2018-08-24T00:15:05.269Z,1.30
2018-08-24T00:16:05.278Z,1.30
2018-08-24T00:17:05.278Z,1.10
2018-08-24T00:18:05.288Z,1.00
2018-08-24T00:19:05.285Z,1.40
2018-08-24T00:20:05.294Z,2.20
2018-08-24T00:21:05.299Z,1.00
2018-08-24T00:22:05.311Z,1.20
2018-08-24T00:23:05.307Z,1.10
2018-08-24T00:24:05.316Z,1.20
2018-08-24T00:25:05.314Z,1.50
2018-08-24T00:26:05.323Z,2.00
2018-08-24T00:27:05.328Z,1.00
2018-08-24T00:28:05.334Z,1.00
2018-08-24T00:29:05.332Z,1.00
2018-08-24T00:30:05.349Z,1.20
2018-08-24T00:31:05.339Z,1.00
2018-08-24T00:32:05.352Z,1.20
2018-08-24T00:33:05.352Z,1.50
2018-08-24T00:34:05.355Z,1.40
2018-08-24T00:35:05.369Z,1.50
2018-08-24T00:36:05.372Z,1.10
2018-08-24T00:37:05.371Z,1.20
2018-08-24T00:38:05.378Z,1.30
2018-08-24T00:39:05.382Z,1.80
2018-08-24T00:40:05.389Z,1.60
2018-08-24T00:41:05.389Z,1.10
2018-08-24T00:42:05.400Z,1.10
2018-08-24T00:43:05.400Z,1.70
2018-08-24T00:44:05.407Z,1.40
2018-08-24T00:45:05.407Z,1.00
2018-08-24T00:46:05.412Z,1.70
2018-08-24T00:47:05.434Z,2.70
2018-08-24T00:48:05.426Z,0.70
2018-08-24T00:49:05.429Z,0.90
2018-08-24T00:50:05.441Z,1.10
2018-08-24T00:51:05.433Z,1.10
2018-08-24T00:52:05.442Z,1.10
2018-08-24T00:53:05.444Z,1.30
2018-08-24T00:54:05.452Z,1.60
2018-08-24T00:55:05.455Z,1.70
2018-08-24T00:56:05.461Z,1.10
2018-08-24T00:57:05.463Z,1.30
2018-08-24T00:58:05.466Z,1.30
2018-08-24T00:59:05.476Z,1.20
2018-08-24T01:00:05.483Z,1.10
2018-08-24T01:01:05.481Z,1.40
2018-08-24T01:02:05.495Z,1.20
2018-08-24T01:03:05.492Z,1.30
2018-08-24T01:04:05.500Z,1.20
2018-08-24T01:05:05.507Z,1.70
2018-08-24T01:06:05.505Z,1.30
2018-08-24T01:07:05.517Z,1.60
2018-08-24T01:08:05.515Z,1.20
2018-08-24T01:09:05.526Z,1.10
2018-08-24T01:10:05.525Z,1.60
2018-08-24T01:11:05.534Z,1.30
2018-08-24T01:12:05.540Z,1.60
2018-08-24T01:13:05.542Z,1.50
2018-08-24T01:14:05.545Z,1.70
2018-08-24T01:15:05.556Z,1.90
2018-08-24T01:16:05.556Z,2.00
2018-08-24T01:17:05.566Z,1.90
2018-08-24T01:18:05.562Z,1.80
2018-08-24T01:19:05.574Z,3.30
2018-08-24T01:20:05.573Z,1.70
2018-08-24T01:21:05.585Z,2.10
2018-08-24T01:22:05.584Z,2.20
2018-08-24T01:23:05.590Z,3.00
2018-08-24T01:24:05.589Z,1.60
2018-08-24T01:25:05.602Z,4.10
2018-08-24T01:26:05.599Z,2.00
2018-08-24T01:27:05.612Z,1.80
2018-08-24T01:28:05.605Z,2.30
2018-08-24T01:29:05.621Z,1.90
2018-08-24T01:30:05.618Z,2.10
2018-08-24T01:31:05.627Z,2.10
2018-08-24T01:32:05.629Z,2.40
2018-08-24T01:33:05.631Z,2.30
2018-08-24T01:34:05.637Z,2.20
2018-08-24T01:35:05.646Z,2.80
2018-08-24T01:36:05.647Z,2.50
2018-08-24T01:37:05.659Z,2.80
2018-08-24T01:38:05.665Z,2.40
2018-08-24T01:39:05.663Z,3.00
2018-08-24T01:40:05.667Z,2.40
2018-08-24T01:41:05.674Z,2.50
2018-08-24T01:42:05.684Z,2.60
2018-08-24T01:43:05.685Z,2.50
2018-08-24T01:44:05.691Z,3.00
2018-08-24T01:45:05.688Z,2.40
2018-08-24T01:46:05.701Z,2.90
2018-08-24T01:47:05.705Z,2.70
2018-08-24T01:48:05.705Z,2.50
2018-08-24T01:49:05.714Z,2.50
2018-08-24T01:50:05.719Z,3.50
2018-08-24T01:51:05.724Z,2.50
2018-08-24T01:52:05.722Z,3.50
2018-08-24T01:53:05.736Z,2.90
2018-08-24T01:54:05.738Z,3.20
2018-08-24T01:55:05.735Z,3.20
2018-08-24T01:56:05.742Z,3.10
2018-08-24T01:57:05.751Z,2.50
2018-08-24T01:58:05.754Z,2.40
2018-08-24T01:59:05.763Z,2.80
2018-08-24T02:00:05.760Z,2.20
2018-08-24T02:01:05.765Z,2.20
2018-08-24T02:02:05.772Z,3.70
2018-08-24T02:03:05.781Z,3.80
2018-08-24T02:04:05.786Z,3.20
2018-08-24T02:05:05.780Z,3.50
2018-08-24T02:06:05.794Z,2.80
2018-08-24T02:07:05.790Z,3.70
2018-08-24T02:08:05.794Z,2.60
2018-08-24T02:09:05.806Z,3.70
2018-08-24T02:10:05.803Z,3.90
2018-08-24T02:11:05.815Z,2.40
2018-08-24T02:12:05.814Z,2.60
2018-08-24T02:13:05.823Z,3.70
2018-08-24T02:14:05.825Z,2.50
2018-08-24T02:15:05.834Z,2.20
2018-08-24T02:16:05.833Z,4.80
2018-08-24T02:17:05.835Z,2.50
2018-08-24T02:18:05.847Z,2.50
2018-08-24T02:19:05.849Z,3.10
2018-08-24T02:20:05.855Z,2.20
2018-08-24T02:21:05.855Z,2.60
2018-08-24T02:22:05.864Z,4.40
2018-08-24T02:23:05.867Z,3.20
2018-08-24T02:24:05.869Z,2.70
2018-08-24T02:25:05.877Z,3.10
2018-08-24T02:26:05.876Z,3.20
2018-08-24T02:27:05.884Z,2.40
2018-08-24T02:28:05.884Z,2.80
2018-08-24T02:29:05.896Z,2.80
2018-08-24T02:30:05.892Z,3.00
2018-08-24T02:31:05.947Z,2.70
2018-08-24T02:32:05.907Z,2.60
2018-08-24T02:33:05.908Z,2.60
2018-08-24T02:34:05.914Z,3.30
2018-08-24T02:35:05.921Z,2.60
2018-08-24T02:36:05.930Z,5.00
2018-08-24T02:37:05.927Z,2.60
2018-08-24T02:38:05.933Z,3.80
2018-08-24T02:39:05.937Z,3.60
2018-08-24T02:40:05.935Z,3.30
2018-08-24T02:41:05.949Z,3.70
2018-08-24T02:42:05.951Z,3.10
2018-08-24T02:43:05.951Z,3.40
2018-08-24T02:44:05.954Z,3.80
2018-08-24T02:45:06.061Z,3.50
2018-08-24T02:46:05.967Z,3.90
2018-08-24T02:47:05.966Z,4.90
2018-08-24T02:48:05.975Z,3.30
2018-08-24T02:49:05.973Z,2.80
2018-08-24T02:50:05.978Z,3.10
2018-08-24T02:51:05.982Z,3.60
2018-08-24T02:52:06.028Z,3.80
2018-08-24T02:53:05.997Z,2.80
2018-08-24T02:54:05.992Z,3.10
2018-08-24T02:55:06.004Z,4.40
2018-08-24T02:56:06.001Z,3.20
2018-08-24T02:57:06.010Z,3.60
2018-08-24T02:58:06.015Z,3.20
2018-08-24T02:59:06.044Z,3.70
2018-08-24T03:00:06.017Z,6.70
2018-08-24T03:01:06.026Z,3.50
2018-08-24T03:02:06.033Z,4.20
2018-08-24T03:03:06.032Z,3.10
2018-08-24T03:04:06.037Z,4.60
2018-08-24T03:05:06.117Z,4.00
2018-08-24T03:06:06.039Z,4.10
2018-08-24T03:07:06.044Z,4.40
2018-08-24T03:08:06.051Z,4.80
2018-08-24T03:09:06.055Z,2.80
2018-08-24T03:10:06.055Z,4.90
2018-08-24T03:11:06.063Z,4.10
2018-08-24T03:12:06.063Z,3.20
2018-08-24T03:13:06.072Z,3.60
2018-08-24T03:14:06.069Z,3.50
2018-08-24T03:15:06.080Z,3.90
2018-08-24T03:16:06.139Z,3.80
2018-08-24T03:17:06.084Z,3.50
2018-08-24T03:18:06.086Z,6.70
2018-08-24T03:19:06.097Z,5.00
2018-08-24T03:20:06.098Z,3.10
2018-08-24T03:21:06.100Z,3.10
2018-08-24T03:22:06.103Z,3.10
2018-08-24T03:23:06.126Z,3.20
2018-08-24T03:24:06.102Z,3.20
2018-08-24T03:25:06.117Z,3.60
2018-08-24T03:26:06.118Z,3.20
2018-08-24T03:27:06.151Z,5.50
2018-08-24T03:28:06.119Z,3.70
2018-08-24T03:29:06.139Z,4.40
2018-08-24T03:30:06.134Z,4.00
2018-08-24T03:31:06.135Z,4.20
2018-08-24T03:32:06.143Z,4.50
2018-08-24T03:33:06.143Z,3.70
2018-08-24T03:34:06.150Z,4.20
2018-08-24T03:35:06.151Z,3.70
2018-08-24T03:36:06.157Z,4.70
2018-08-24T03:37:06.155Z,6.20
2018-08-24T03:38:06.165Z,4.30
2018-08-24T03:39:06.160Z,3.30
2018-08-24T03:40:06.170Z,3.60
2018-08-24T03:41:06.180Z,3.80
2018-08-24T03:42:06.178Z,4.80
2018-08-24T03:43:06.184Z,3.90
2018-08-24T03:44:06.188Z,4.60
2018-08-24T03:45:06.192Z,5.70
2018-08-24T03:46:06.197Z,4.40
2018-08-24T03:47:06.197Z,5.60
2018-08-24T03:48:06.196Z,6.60
2018-08-24T03:49:06.206Z,5.30
2018-08-24T03:50:06.205Z,4.60
2018-08-24T03:51:06.219Z,4.90
2018-08-24T03:52:06.211Z,4.10
2018-08-24T03:53:06.245Z,5.00
2018-08-24T03:54:06.218Z,4.80
2018-08-24T03:55:06.232Z,4.20
2018-08-24T03:56:06.228Z,4.80
2018-08-24T03:57:06.234Z,5.00
2018-08-24T03:58:06.237Z,5.10
2018-08-24T03:59:06.242Z,4.10
2018-08-24T04:00:06.243Z,4.70
2018-08-24T04:01:06.248Z,4.20
2018-08-24T04:02:06.255Z,4.60
2018-08-24T04:03:06.254Z,3.10
2018-08-24T04:04:06.267Z,4.20
2018-08-24T04:05:06.259Z,3.30
2018-08-24T04:06:06.270Z,4.90
2018-08-24T04:07:06.268Z,4.20
2018-08-24T04:08:06.277Z,6.30
2018-08-24T04:09:06.283Z,5.50
2018-08-24T04:10:06.284Z,5.00
2018-08-24T04:11:06.280Z,4.20
2018-08-24T04:12:06.291Z,5.50
2018-08-24T04:13:06.291Z,5.10
2018-08-24T04:14:06.298Z,4.20
2018-08-24T04:15:06.297Z,3.50
2018-08-24T04:16:06.307Z,3.50
2018-08-24T04:17:06.306Z,3.60
2018-08-24T04:18:06.317Z,5.10
2018-08-24T04:19:06.317Z,4.20
2018-08-24T04:20:06.322Z,4.80
2018-08-24T04:21:06.322Z,5.60
2018-08-24T04:22:06.321Z,5.10
2018-08-24T04:23:06.336Z,5.50
2018-08-24T04:24:06.335Z,4.30
2018-08-24T04:25:06.336Z,5.00
2018-08-24T04:26:06.491Z,5.30
2018-08-24T04:27:06.349Z,4.10
2018-08-24T04:28:06.353Z,7.20
2018-08-24T04:29:06.350Z,4.00
2018-08-24T04:30:06.356Z,5.80
2018-08-24T04:31:06.361Z,4.90
2018-08-24T04:32:06.362Z,3.60
2018-08-24T04:33:06.364Z,4.30
2018-08-24T04:34:06.372Z,5.70
2018-08-24T04:35:06.536Z,4.50
2018-08-24T04:36:06.378Z,5.40
2018-08-24T04:37:06.382Z,4.80
2018-08-24T04:38:06.383Z,4.30
2018-08-24T04:39:06.394Z,5.20
2018-08-24T04:40:06.439Z,5.00
2018-08-24T04:41:06.395Z,5.50
2018-08-24T04:42:06.411Z,5.80
2018-08-24T04:43:06.401Z,4.70
2018-08-24T04:44:06.409Z,5.00
2018-08-24T04:45:06.410Z,7.00
2018-08-24T04:46:06.417Z,5.10
2018-08-24T04:47:06.416Z,5.40
2018-08-24T04:48:06.427Z,6.50
2018-08-24T04:49:06.422Z,6.00
2018-08-24T04:50:06.435Z,7.10
2018-08-24T04:51:06.429Z,8.20
2018-08-24T04:52:06.435Z,10.30
2018-08-24T04:53:06.447Z,7.60
2018-08-24T04:54:06.446Z,9.80
2018-08-24T04:55:06.449Z,8.10
2018-08-24T04:56:06.450Z,8.70
2018-08-24T04:57:06.459Z,8.90
2018-08-24T04:58:06.498Z,8.00
2018-08-24T04:59:06.469Z,11.50
2018-08-24T05:00:06.466Z,9.00
2018-08-24T05:01:06.475Z,11.30
2018-08-24T05:02:06.518Z,9.40
2018-08-24T05:03:06.482Z,8.10
2018-08-24T05:04:06.481Z,8.50
2018-08-24T05:05:06.490Z,8.70
2018-08-24T05:06:06.490Z,11.20
2018-08-24T05:07:06.498Z,10.20
2018-08-24T05:08:06.499Z,11.50
2018-08-24T05:09:06.504Z,8.90
2018-08-24T05:10:06.509Z,9.70
2018-08-24T05:11:06.515Z,12.40
2018-08-24T05:12:06.516Z,11.70
2018-08-24T05:13:06.514Z,11.10
2018-08-24T05:14:06.528Z,10.30
2018-08-24T05:15:06.522Z,10.20
2018-08-24T05:16:06.530Z,10.00
2018-08-24T05:17:06.530Z,11.00
2018-08-24T05:18:06.544Z,10.60
2018-08-24T05:19:06.540Z,12.40
2018-08-24T05:20:06.544Z,11.10
2018-08-24T05:21:06.550Z,13.50
2018-08-24T05:22:06.551Z,12.20
2018-08-24T05:23:06.557Z,12.30
2018-08-24T05:24:06.558Z,11.50
2018-08-24T05:25:06.575Z,11.50
2018-08-24T05:26:06.568Z,14.10
2018-08-24T05:27:06.576Z,12.30
2018-08-24T05:28:06.600Z,12.60
2018-08-24T05:29:06.579Z,11.70
2018-08-24T05:30:06.582Z,13.40
2018-08-24T05:31:06.598Z,12.40
2018-08-24T05:32:06.594Z,11.40
2018-08-24T05:33:06.592Z,13.10
2018-08-24T05:34:06.598Z,12.80
2018-08-24T05:35:06.604Z,13.90
2018-08-24T05:36:06.609Z,14.10
2018-08-24T05:37:06.615Z,12.40
2018-08-24T05:38:06.616Z,14.50
2018-08-24T05:39:06.617Z,13.90
2018-08-24T05:40:06.621Z,14.50
2018-08-24T05:41:06.633Z,15.80
2018-08-24T05:42:06.634Z,15.70
2018-08-24T05:43:06.634Z,15.30
2018-08-24T05:44:06.638Z,15.50
2018-08-24T05:45:06.644Z,15.70
2018-08-24T05:46:06.651Z,15.40
2018-08-24T05:47:06.651Z,16.90
2018-08-24T05:48:06.653Z,15.40
2018-08-24T05:49:06.664Z,18.10
2018-08-24T05:50:06.666Z,15.60
2018-08-24T05:51:06.665Z,16.90
2018-08-24T05:52:06.682Z,19.50
2018-08-24T05:53:06.681Z,22.00
2018-08-24T05:54:06.681Z,18.80
2018-08-24T05:55:06.691Z,19.40
2018-08-24T05:56:06.686Z,20.10
2018-08-24T05:57:06.695Z,18.90
2018-08-24T05:58:06.697Z,21.50
2018-08-24T05:59:06.705Z,22.50
2018-08-24T06:00:06.702Z,21.00
2018-08-24T06:01:06.712Z,19.90
2018-08-24T06:02:06.715Z,22.00
2018-08-24T06:03:06.722Z,21.10
2018-08-24T06:04:06.719Z,24.40
2018-08-24T06:05:06.726Z,22.20
2018-08-24T06:06:06.728Z,21.00
2018-08-24T06:07:06.734Z,24.00
2018-08-24T06:08:06.754Z,21.30
2018-08-24T06:09:06.745Z,21.50
2018-08-24T06:10:06.742Z,20.50
2018-08-24T06:11:06.757Z,20.80
2018-08-24T06:12:06.755Z,23.00
2018-08-24T06:13:06.760Z,23.10
2018-08-24T06:14:06.767Z,26.70
2018-08-24T06:15:06.768Z,21.60
2018-08-24T06:16:06.769Z,21.10
2018-08-24T06:17:06.777Z,20.20
2018-08-24T06:18:06.826Z,20.80
2018-08-24T06:19:06.784Z,21.00
2018-08-24T06:20:06.784Z,23.10
2018-08-24T06:21:06.796Z,22.00
2018-08-24T06:22:06.793Z,23.10
2018-08-24T06:23:06.805Z,22.40
2018-08-24T06:24:06.807Z,23.90
2018-08-24T06:25:06.810Z,21.20
2018-08-24T06:26:06.821Z,22.20
2018-08-24T06:27:06.816Z,22.90
2018-08-24T06:28:06.817Z,23.90
2018-08-24T06:29:06.830Z,23.40
2018-08-24T06:30:06.828Z,25.60
2018-08-24T06:31:06.834Z,22.70
2018-08-24T06:32:06.834Z,24.90
2018-08-24T06:33:06.852Z,24.40
2018-08-24T06:34:06.897Z,22.60
2018-08-24T06:35:06.851Z,25.20
2018-08-24T06:36:06.856Z,24.00
2018-08-24T06:37:06.879Z,22.80
2018-08-24T06:38:06.869Z,23.10
2018-08-24T06:39:06.867Z,25.10
2018-08-24T06:40:06.873Z,22.80
2018-08-24T06:41:06.880Z,24.10
2018-08-24T06:42:06.886Z,26.30
2018-08-24T06:43:06.891Z,26.50
2018-08-24T06:44:06.888Z,23.80
2018-08-24T06:45:06.892Z,23.20
2018-08-24T06:46:06.904Z,25.10
2018-08-24T06:47:06.952Z,24.80
2018-08-24T06:48:06.906Z,25.40
2018-08-24T06:49:06.914Z,27.50
2018-08-24T06:50:06.920Z,23.50
2018-08-24T06:51:06.918Z,25.10
2018-08-24T06:52:06.923Z,25.40
2018-08-24T06:53:07.011Z,24.90
2018-08-24T06:54:06.941Z,24.90
2018-08-24T06:55:06.938Z,22.70
2018-08-24T06:56:06.942Z,25.50
2018-08-24T06:57:06.952Z,26.40
2018-08-24T06:58:06.951Z,24.20
2018-08-24T06:59:07.118Z,21.80
2018-08-24T07:00:06.958Z,26.40
2018-08-24T07:01:06.970Z,22.90
2018-08-24T07:02:06.975Z,22.80
2018-08-24T07:03:06.980Z,25.40
2018-08-24T07:04:06.977Z,24.10
2018-08-24T07:05:06.989Z,23.00
2018-08-24T07:06:06.988Z,26.00
2018-08-24T07:07:06.997Z,26.40
2018-08-24T07:08:07.017Z,24.00
2018-08-24T07:09:07.011Z,24.80
2018-08-24T07:10:07.009Z,24.70
2018-08-24T07:11:07.018Z,24.70
2018-08-24T07:12:07.753Z,24.10
2018-08-24T07:13:07.111Z,22.60
2018-08-24T07:14:07.032Z,21.30
2018-08-24T07:15:07.031Z,24.30
2018-08-24T07:16:07.042Z,23.50
2018-08-24T07:17:07.037Z,22.70
2018-08-24T07:18:07.046Z,25.80
2018-08-24T07:19:07.048Z,24.20
2018-08-24T07:20:07.100Z,21.80
2018-08-24T07:21:07.060Z,22.20
2018-08-24T07:22:07.067Z,23.70
2018-08-24T07:23:07.072Z,25.20
2018-08-24T07:24:07.069Z,23.60
2018-08-24T07:25:07.091Z,23.30
2018-08-24T07:26:07.076Z,25.10
2018-08-24T07:27:07.091Z,22.50
2018-08-24T07:28:07.098Z,22.70
2018-08-24T07:29:07.109Z,22.50
2018-08-24T07:30:07.101Z,24.90
2018-08-24T07:31:07.107Z,23.40
2018-08-24T07:32:07.107Z,26.00
2018-08-24T07:33:07.119Z,23.90
2018-08-24T07:34:07.119Z,23.70
2018-08-24T07:35:07.128Z,22.50
2018-08-24T07:36:07.123Z,24.10
2018-08-24T07:37:07.136Z,23.10
2018-08-24T07:38:07.138Z,22.00
2018-08-24T07:39:07.141Z,24.00
2018-08-24T07:40:07.146Z,23.70
2018-08-24T07:41:07.154Z,20.30
2018-08-24T07:42:07.160Z,21.70
2018-08-24T07:43:07.157Z,19.50
2018-08-24T07:44:07.164Z,21.50
2018-08-24T07:45:07.175Z,22.20
2018-08-24T07:46:07.177Z,20.00
2018-08-24T07:47:07.184Z,18.80
2018-08-24T07:48:07.184Z,20.50
2018-08-24T07:49:07.194Z,20.50
2018-08-24T07:50:07.193Z,20.70
2018-08-24T07:51:07.204Z,19.30
2018-08-24T07:52:07.207Z,22.20
2018-08-24T07:53:07.209Z,17.50
2018-08-24T07:54:07.217Z,17.30
2018-08-24T07:55:07.220Z,17.80
2018-08-24T07:56:07.228Z,17.60
2018-08-24T07:57:07.273Z,20.70
2018-08-24T07:58:07.249Z,19.50
2018-08-24T07:59:07.239Z,18.20
2018-08-24T08:00:07.241Z,20.50
2018-08-24T08:01:07.254Z,17.30
2018-08-24T08:02:07.250Z,17.90
2018-08-24T08:03:07.263Z,19.00
2018-08-24T08:04:07.266Z,17.90
2018-08-24T08:05:07.269Z,20.00
2018-08-24T08:06:07.274Z,17.90
2018-08-24T08:07:07.283Z,21.90
2018-08-24T08:08:07.288Z,18.60
2018-08-24T08:09:07.284Z,19.20
2018-08-24T08:10:07.292Z,16.20
2018-08-24T08:11:07.299Z,17.70
2018-08-24T08:12:07.302Z,16.50
2018-08-24T08:13:07.310Z,14.50
2018-08-24T08:14:07.310Z,15.50
2018-08-24T08:15:07.324Z,16.40
2018-08-24T08:16:07.325Z,15.40
2018-08-24T08:17:07.327Z,16.00
2018-08-24T08:18:07.346Z,12.70
2018-08-24T08:19:07.342Z,11.50
2018-08-24T08:20:07.337Z,8.90
2018-08-24T08:21:07.349Z,11.50
2018-08-24T08:22:07.350Z,9.00
2018-08-24T08:23:07.358Z,10.70
2018-08-24T08:24:07.359Z,9.50
2018-08-24T08:25:07.364Z,8.40
2018-08-24T08:26:07.371Z,8.50
2018-08-24T08:27:07.372Z,8.90
2018-08-24T08:28:07.385Z,7.70
2018-08-24T08:29:07.379Z,8.40
2018-08-24T08:30:07.392Z,9.10
2018-08-24T08:31:07.392Z,7.20
2018-08-24T08:32:07.399Z,7.80
2018-08-24T08:33:07.408Z,10.40
2018-08-24T08:34:07.412Z,8.10
2018-08-24T08:35:07.412Z,6.40
2018-08-24T08:36:07.420Z,7.60
2018-08-24T08:37:07.426Z,6.70
2018-08-24T08:38:07.434Z,7.40
2018-08-24T08:39:07.515Z,8.70
2018-08-24T08:40:07.437Z,6.20
2018-08-24T08:41:07.448Z,6.40
2018-08-24T08:42:07.448Z,9.30
2018-08-24T08:43:07.459Z,7.10
2018-08-24T08:44:07.458Z,6.10
2018-08-24T08:45:07.470Z,9.10
2018-08-24T08:46:07.467Z,8.50
2018-08-24T08:47:07.527Z,6.20
2018-08-24T08:48:07.488Z,5.10
2018-08-24T08:49:07.487Z,6.70
2018-08-24T08:50:07.500Z,6.10
2018-08-24T08:51:07.513Z,6.50
2018-08-24T08:52:07.512Z,5.90
2018-08-24T08:53:08.290Z,5.70
2018-08-24T08:54:07.527Z,6.80
2018-08-24T08:55:07.534Z,8.40
2018-08-24T08:56:07.540Z,5.10
2018-08-24T08:57:07.545Z,5.30
2018-08-24T08:58:07.558Z,5.80
2018-08-24T08:59:07.561Z,6.20
2018-08-24T09:00:07.575Z,6.60
2018-08-24T09:01:07.575Z,3.10
2018-08-24T09:02:07.591Z,5.30
2018-08-24T09:03:07.593Z,7.40
2018-08-24T09:04:08.295Z,4.20
2018-08-24T09:05:07.612Z,5.80
2018-08-24T09:06:07.715Z,6.30
2018-08-24T09:07:07.637Z,5.60
2018-08-24T09:08:07.643Z,8.50
2018-08-24T09:09:07.644Z,6.80
2018-08-24T09:10:07.658Z,6.30
2018-08-24T09:11:07.670Z,8.00
2018-08-24T09:12:07.682Z,7.70
2018-08-24T09:13:07.682Z,5.70
2018-08-24T09:14:07.705Z,6.40
2018-08-24T09:15:07.708Z,7.70
2018-08-24T09:16:07.713Z,6.20
2018-08-24T09:17:07.718Z,5.30
2018-08-24T09:18:07.727Z,5.70
2018-08-24T09:19:07.743Z,6.90
2018-08-24T09:20:07.746Z,5.80
2018-08-24T09:21:07.758Z,6.40
2018-08-24T09:22:07.771Z,5.20
2018-08-24T09:23:07.774Z,5.60
2018-08-24T09:24:07.789Z,6.20
2018-08-24T09:25:07.796Z,10.80
2018-08-24T09:26:07.809Z,6.90
2018-08-24T09:27:07.826Z,5.00
2018-08-24T09:28:07.835Z,5.50
2018-08-24T09:29:07.843Z,5.70
2018-08-24T09:30:07.861Z,7.70
2018-08-24T09:31:07.869Z,7.40
2018-08-24T09:32:07.879Z,6.30
2018-08-24T09:33:07.885Z,7.60
2018-08-24T09:34:07.900Z,4.60
2018-08-24T09:35:07.907Z,5.60
2018-08-24T09:36:07.926Z,7.10
2018-08-24T09:37:07.933Z,6.80
2018-08-24T09:38:07.942Z,5.70
2018-08-24T09:39:07.957Z,5.20
2018-08-24T09:40:07.966Z,7.30
2018-08-24T09:41:07.972Z,5.60
2018-08-24T09:42:07.980Z,5.10
2018-08-24T09:43:08.009Z,3.80
2018-08-24T09:44:07.998Z,5.90
2018-08-24T09:45:08.010Z,6.40
2018-08-24T09:46:08.017Z,7.00
2018-08-24T09:47:08.031Z,6.70
2018-08-24T09:48:08.039Z,5.70
2018-08-24T09:49:08.190Z,5.30
2018-08-24T09:50:08.055Z,6.20
2018-08-24T09:51:08.075Z,7.40
2018-08-24T09:52:08.077Z,3.60
2018-08-24T09:53:08.093Z,7.70
2018-08-24T09:54:08.108Z,3.40
2018-08-24T09:55:08.114Z,4.90
2018-08-24T09:56:08.124Z,4.60
2018-08-24T09:57:08.135Z,5.80
2018-08-24T09:58:08.144Z,5.80
2018-08-24T09:59:08.169Z,5.50
2018-08-24T10:00:08.175Z,4.30
2018-08-24T10:01:08.190Z,3.30
2018-08-24T10:02:08.197Z,4.50
2018-08-24T10:03:08.219Z,5.00
2018-08-24T10:04:08.222Z,4.30
2018-08-24T10:05:08.239Z,4.10
2018-08-24T10:06:08.262Z,4.20
2018-08-24T10:07:08.266Z,6.00
2018-08-24T10:08:08.279Z,5.00
2018-08-24T10:09:08.290Z,3.90
2018-08-24T10:10:08.306Z,5.50
2018-08-24T10:11:08.324Z,4.50
2018-08-24T10:12:08.337Z,3.80
2018-08-24T10:13:08.393Z,4.60
2018-08-24T10:14:08.364Z,4.50
2018-08-24T10:15:08.375Z,7.30
2018-08-24T10:16:08.390Z,8.50
2018-08-24T10:17:08.402Z,5.20
2018-08-24T10:18:08.418Z,7.00
2018-08-24T10:19:08.429Z,5.00
2018-08-24T10:20:08.436Z,4.30
2018-08-24T10:21:08.457Z,5.40
2018-08-24T10:22:08.469Z,3.90
2018-08-24T10:23:08.516Z,6.90
2018-08-24T10:24:08.487Z,6.70
2018-08-24T10:25:08.497Z,5.00
2018-08-24T10:26:08.512Z,7.40
2018-08-24T10:27:08.524Z,4.20
2018-08-24T10:28:08.534Z,5.90
2018-08-24T10:29:08.624Z,4.40
2018-08-24T10:30:08.559Z,8.40
2018-08-24T10:31:08.574Z,10.70
2018-08-24T10:32:08.577Z,6.40
2018-08-24T10:33:08.597Z,4.40
2018-08-24T10:34:08.614Z,9.90
2018-08-24T10:35:08.616Z,4.40
2018-08-24T10:36:08.627Z,3.50
2018-08-24T10:37:08.643Z,4.40
2018-08-24T10:38:08.659Z,5.80
2018-08-24T10:39:08.785Z,3.50
2018-08-24T10:40:08.678Z,4.60
2018-08-24T10:41:08.690Z,5.20
2018-08-24T10:42:08.701Z,4.80
2018-08-24T10:43:08.721Z,3.40
2018-08-24T10:44:08.736Z,3.70
2018-08-24T10:45:08.741Z,3.90
2018-08-24T10:46:08.760Z,5.90
2018-08-24T10:47:08.838Z,3.00
2018-08-24T10:48:08.793Z,7.60
2018-08-24T10:49:08.850Z,4.70
2018-08-24T10:50:08.811Z,3.00
2018-08-24T10:51:08.827Z,5.30
2018-08-24T10:52:08.836Z,2.90
2018-08-24T10:53:08.857Z,4.10
2018-08-24T10:54:08.864Z,2.80
2018-08-24T10:55:08.893Z,7.60
2018-08-24T10:56:08.994Z,5.00
2018-08-24T10:57:08.913Z,4.00
2018-08-24T10:58:08.923Z,5.10
2018-08-24T10:59:08.946Z,3.60
2018-08-24T11:00:08.947Z,3.30
2018-08-24T11:01:08.974Z,12.10
2018-08-24T11:02:09.065Z,2.60
2018-08-24T11:03:09.003Z,6.00
2018-08-24T11:04:09.008Z,3.00
2018-08-24T11:05:09.028Z,3.60
2018-08-24T11:06:09.040Z,9.50
2018-08-24T11:07:09.065Z,5.50
2018-08-24T11:08:09.066Z,4.40
2018-08-24T11:09:09.084Z,4.80
2018-08-24T11:10:09.098Z,5.40
2018-08-24T11:11:09.115Z,4.40
2018-08-24T11:12:09.129Z,3.80
2018-08-24T11:13:09.146Z,3.00
2018-08-24T11:14:09.159Z,3.00
2018-08-24T11:15:09.172Z,4.40
2018-08-24T11:16:09.183Z,7.90
2018-08-24T11:17:09.203Z,3.50
2018-08-24T11:18:09.213Z,3.60
2018-08-24T11:19:09.228Z,4.00
2018-08-24T11:20:09.240Z,3.20
2018-08-24T11:21:09.257Z,2.40
2018-08-24T11:22:09.854Z,3.20
2018-08-24T11:23:09.390Z,2.80
2018-08-24T11:24:09.294Z,4.50
2018-08-24T11:25:09.319Z,3.90
2018-08-24T11:26:09.354Z,3.20
2018-08-24T11:27:09.339Z,3.40
2018-08-24T11:28:09.361Z,4.30
2018-08-24T11:29:09.386Z,2.90
2018-08-24T11:30:09.383Z,4.20
2018-08-24T11:31:09.390Z,2.90
2018-08-24T11:32:09.402Z,2.60
2018-08-24T11:33:09.450Z,4.10
2018-08-24T11:34:09.444Z,4.40
2018-08-24T11:35:09.442Z,3.40
2018-08-24T11:36:09.607Z,5.00
2018-08-24T11:37:09.470Z,2.80
2018-08-24T11:38:09.480Z,11.10
2018-08-24T11:39:09.489Z,3.10
2018-08-24T11:40:09.499Z,2.70
2018-08-24T11:41:09.516Z,4.00
2018-08-24T11:42:09.553Z,2.30
2018-08-24T11:43:09.531Z,3.90
2018-08-24T11:44:09.549Z,5.00
2018-08-24T11:45:09.592Z,2.60
2018-08-24T11:46:09.567Z,4.20
2018-08-24T11:47:09.586Z,3.20
2018-08-24T11:48:09.591Z,3.40
2018-08-24T11:49:09.609Z,3.60
2018-08-24T11:50:09.619Z,3.70
2018-08-24T11:51:09.631Z,2.30
2018-08-24T11:52:09.638Z,4.90
2018-08-24T11:53:09.653Z,2.90
2018-08-24T11:54:09.740Z,1.90
2018-08-24T11:55:09.674Z,3.10
2018-08-24T11:56:09.682Z,3.50
2018-08-24T11:57:09.699Z,3.80
2018-08-24T11:58:09.710Z,3.50
2018-08-24T11:59:09.723Z,3.50
2018-08-24T12:00:09.727Z,4.10
2018-08-24T12:01:09.746Z,4.00
2018-08-24T12:02:09.775Z,3.60
2018-08-24T12:03:09.766Z,3.70
2018-08-24T12:04:09.775Z,7.00
2018-08-24T12:05:09.778Z,3.10
2018-08-24T12:06:09.794Z,2.70
2018-08-24T12:07:09.805Z,2.00
2018-08-24T12:08:09.966Z,2.50
2018-08-24T12:09:10.374Z,4.00
2018-08-24T12:10:09.838Z,2.40
2018-08-24T12:11:09.848Z,5.20
2018-08-24T12:12:09.907Z,3.50
2018-08-24T12:13:09.863Z,5.60
2018-08-24T12:14:09.876Z,2.90
2018-08-24T12:15:09.889Z,3.40
2018-08-24T12:16:09.896Z,3.20
2018-08-24T12:17:09.905Z,4.40
2018-08-24T12:18:09.911Z,5.10
2018-08-24T12:19:09.924Z,2.00
2018-08-24T12:20:09.928Z,5.00
2018-08-24T12:21:09.999Z,3.20
2018-08-24T12:22:09.947Z,5.60
2018-08-24T12:23:09.962Z,3.70
2018-08-24T12:24:09.969Z,4.10
2018-08-24T12:25:09.977Z,6.70
2018-08-24T12:26:09.987Z,2.60
2018-08-24T12:27:10.095Z,3.70
2018-08-24T12:28:10.005Z,5.90
2018-08-24T12:29:10.016Z,5.30
2018-08-24T12:30:10.021Z,4.90
2018-08-24T12:31:10.032Z,3.50
2018-08-24T12:32:10.042Z,3.30
2018-08-24T12:33:10.051Z,2.90
2018-08-24T12:34:10.054Z,3.40
2018-08-24T12:35:10.068Z,3.30
2018-08-24T12:36:10.071Z,2.80
2018-08-24T12:37:10.084Z,3.20
2018-08-24T12:38:10.153Z,3.10
2018-08-24T12:39:10.101Z,2.20
2018-08-24T12:40:10.107Z,1.80
2018-08-24T12:41:10.175Z,2.80
2018-08-24T12:42:10.126Z,2.60
2018-08-24T12:43:10.140Z,4.20
2018-08-24T12:44:10.140Z,5.00
2018-08-24T12:45:10.156Z,4.80
2018-08-24T12:46:10.158Z,4.10
2018-08-24T12:47:10.174Z,5.90
2018-08-24T12:48:10.180Z,3.70
2018-08-24T12:49:10.183Z,3.20
2018-08-24T12:50:10.198Z,2.80
2018-08-24T12:51:10.206Z,2.50
2018-08-24T12:52:10.302Z,3.50
2018-08-24T12:53:10.217Z,2.10
2018-08-24T12:54:10.228Z,4.10
2018-08-24T12:55:10.245Z,2.90
2018-08-24T12:56:10.252Z,2.20
2018-08-24T12:57:10.253Z,2.40
2018-08-24T12:58:10.261Z,2.40
2018-08-24T12:59:10.275Z,7.30
2018-08-24T13:00:10.281Z,3.40
2018-08-24T13:01:10.281Z,2.40
2018-08-24T13:02:10.295Z,2.70
2018-08-24T13:03:10.305Z,4.20
2018-08-24T13:04:10.304Z,4.70
2018-08-24T13:05:10.319Z,3.90
2018-08-24T13:06:10.321Z,2.90
2018-08-24T13:07:10.334Z,3.60
2018-08-24T13:08:10.342Z,2.00
2018-08-24T13:09:10.344Z,2.00
2018-08-24T13:10:10.353Z,3.40
2018-08-24T13:11:10.368Z,7.50